Friday, May 27, 2016, 12:04 PM EDT

KSBY, Salisbury-wicomico Cty Reg

Location: Salisbury, MD, United States Lat: 38.333
Local Time: 12:04 PM EDT (16:04 GMT) Lon: -75.5
Time Zone: US/Eastern Elev: 52 ft

Show me the last for .
Show Decoded

2016-05-27 10:54 METAR KSBY 271454Z 24008KT 10SM CLR 27/18 A3011 RMK AO2 SLP197 T02720183 58000 =
2016-05-27 09:54 METAR KSBY 271354Z 23010KT 10SM CLR 26/18 A3011 RMK AO2 SLP198 T02610178 =
2016-05-27 08:54 METAR KSBY 271254Z 21012KT 10SM CLR 24/18 A3011 RMK AO2 SLP199 T02440178 =
2016-05-27 07:54 METAR KSBY 271154Z 22009KT 10SM CLR 22/17 A3011 RMK AO2 SLP198 T02220172 10222
                 20194 52004 =
2016-05-27 06:54 METAR KSBY 271054Z 21007KT 10SM CLR 21/17 A3010 RMK AO2 SLP195 T02060172 =
2016-05-27 05:54 METAR KSBY 270954Z 20007KT 10SM FEW003 19/17 A3010 RMK AO2 SLP196 T01940172 =
2016-05-27 05:46 METAR KSBY 270946Z 21006KT 10SM FEW003 19/17 A3011 RMK AO2 T01940172 =
2016-05-27 04:54 METAR KSBY 270854Z AUTO 21006KT 10SM CLR 20/17 A3010 RMK AO2 SLP193 T02000172
                 51005 =
2016-05-27 03:54 METAR KSBY 270754Z AUTO 19006KT 10SM CLR 20/17 A3009 RMK AO2 SLP192 T02000172 =
2016-05-27 02:54 METAR KSBY 270654Z AUTO 20003KT 10SM CLR 19/17 A3009 RMK AO2 SLP190 T01940172 =
2016-05-27 01:54 METAR KSBY 270554Z AUTO 19004KT 10SM CLR 19/17 A3008 RMK AO2 SLP188 T01940172
                 10256 20194 57001 =
2016-05-27 00:54 METAR KSBY 270454Z AUTO 17005KT 10SM CLR 21/18 A3008 RMK AO2 SLP187 T02110178
                 403170139 =
2016-05-26 23:54 METAR KSBY 270354Z AUTO 18007KT 10SM CLR 22/18 A3008 RMK AO2 SLP189 T02170178 =
2016-05-26 22:54 METAR KSBY 270254Z AUTO 18007KT 10SM CLR 22/17 A3008 RMK AO2 SLP188 T02220167
                 51007 =
2016-05-26 21:54 METAR KSBY 270154Z 18007KT 10SM CLR 23/16 A3008 RMK AO2 SLP188 T02280161 =
2016-05-26 20:54 METAR KSBY 270054Z 16006KT 10SM CLR 23/17 A3008 RMK AO2 SLP186 T02330172 =
2016-05-26 19:54 METAR KSBY 262354Z 17006KT 10SM CLR 26/18 A3006 RMK AO2 SLP181 T02560178 10317
                 20256 55000 =
2016-05-26 18:54 METAR KSBY 262254Z 16008KT 10SM CLR 29/15 A3004 RMK AO2 SLP175 T02940150 =
2016-05-26 17:54 METAR KSBY 262154Z 20008KT 10SM CLR 30/14 A3004 RMK AO2 SLP176 T03000144 =
2016-05-26 16:54 METAR KSBY 262054Z 20009KT 10SM CLR 31/13 A3006 RMK AO2 SLP181 T03110133 58007 =
2016-05-26 15:54 METAR KSBY 261954Z 24010KT 10SM CLR 31/13 A3007 RMK AO2 SLP184 T03110133 =
2016-05-26 14:54 METAR KSBY 261854Z 22008KT 10SM CLR 31/15 A3008 RMK AO2 SLP186 T03110150 =
2016-05-26 13:54 METAR KSBY 261754Z 23007KT 10SM CLR 31/14 A3008 RMK AO2 SLP188 T03110144 10311
                 20211 58013 =
2016-05-26 12:54 METAR KSBY 261654Z 21008KT 10SM CLR 31/14 A3010 RMK AO2 SLP195 T03110144 =

Support USWX by starting your Amazon purchase here.